Time;durP1;ratioP1;P1;durP2;ratioP2;P2;SDS_P1;SDS_P2;PMS_P1;PMS_P2;Temp;Humidity;BMP_temperature;BMP_pressure;BME280_temperature;BME280_humidity;BME280_pressure;Samples;Min_cycle;Max_cycle;Signal;HPM_P1;HPM_P2
2022/09/23 00:00:31;;;;;;;4.90;3.30;;;;;;;;;;5069350;28;20445;-72
2022/09/23 00:02:58;;;;;;;4.60;3.23;;;;;;;;;;5069764;28;20939;-73
2022/09/23 00:05:25;;;;;;;2.83;2.43;;;;;;;;;;5069432;28;20929;-73
2022/09/23 00:07:53;;;;;;;3.73;3.37;;;;;;;;;;5069265;28;20449;-72
2022/09/23 00:10:22;;;;;;;3.10;2.73;;;;;;;;;;5069581;28;20488;-72
2022/09/23 00:12:49;;;;;;;4.07;3.10;;;;;;;;;;5069867;28;20948;-73
2022/09/23 00:15:17;;;;;;;5.00;2.90;;;;;;;;;;5069924;28;20520;-74
2022/09/23 00:17:45;;;;;;;5.27;3.33;;;;;;;;;;5069670;28;20557;-73
2022/09/23 00:20:14;;;;;;;4.47;2.57;;;;;;;;;;5069707;28;20459;-73
2022/09/23 00:22:41;;;;;;;3.97;2.90;;;;;;;;;;5073071;28;20445;-72
2022/09/23 00:25:09;;;;;;;3.00;2.70;;;;;;;;;;5073526;28;20453;-72
2022/09/23 00:27:38;;;;;;;5.10;3.17;;;;;;;;;;5072127;28;20492;-72
2022/09/23 00:30:06;;;;;;;3.70;2.60;;;;;;;;;;5073141;28;20452;-72
2022/09/23 00:32:33;;;;;;;3.67;2.50;;;;;;;;;;5072902;28;20459;-72
2022/09/23 00:35:00;;;;;;;2.97;2.70;;;;;;;;;;5073060;28;20478;-72
2022/09/23 00:37:28;;;;;;;4.73;3.33;;;;;;;;;;5072448;28;20944;-72
2022/09/23 00:39:55;;;;;;;4.30;2.80;;;;;;;;;;5072755;28;20459;-73
2022/09/23 00:42:24;;;;;;;5.23;2.80;;;;;;;;;;5073011;28;20451;-73
2022/09/23 00:44:53;;;;;;;3.00;2.63;;;;;;;;;;5073353;28;20442;-72
2022/09/23 00:47:22;;;;;;;3.83;2.67;;;;;;;;;;5072552;28;20447;-72
2022/09/23 00:49:52;;;;;;;5.60;2.97;;;;;;;;;;5072446;28;20451;-73
2022/09/23 00:52:21;;;;;;;4.67;3.07;;;;;;;;;;5072873;28;20459;-72
2022/09/23 00:54:48;;;;;;;2.97;2.63;;;;;;;;;;5072346;28;20475;-72
2022/09/23 00:57:17;;;;;;;4.43;3.40;;;;;;;;;;5072822;28;20971;-72
2022/09/23 00:59:45;;;;;;;3.60;2.87;;;;;;;;;;5073294;28;20465;-72
2022/09/23 01:02:14;;;;;;;2.90;2.70;;;;;;;;;;5072202;28;20458;-72
2022/09/23 01:04:42;;;;;;;3.03;2.70;;;;;;;;;;5072415;28;20446;-72
2022/09/23 01:07:09;;;;;;;5.33;3.37;;;;;;;;;;5072577;28;20814;-72
2022/09/23 01:09:36;;;;;;;3.80;2.63;;;;;;;;;;5068801;28;20450;-73
2022/09/23 01:12:09;;;;;;;3.67;2.57;;;;;;;;;;5072230;28;20448;-72
2022/09/23 01:14:41;;;;;;;4.20;3.00;;;;;;;;;;5072444;28;20619;-72
2022/09/23 01:17:12;;;;;;;7.30;3.30;;;;;;;;;;5072141;28;20473;-72
2022/09/23 01:19:55;;;;;;;4.67;3.43;;;;;;;;;;5072362;28;20450;-72
2022/09/23 01:22:28;;;;;;;4.87;2.53;;;;;;;;;;5072319;28;20469;-72
2022/09/23 01:25:05;;;;;;;4.90;2.80;;;;;;;;;;5072467;28;20934;-73
2022/09/23 01:27:42;;;;;;;2.53;2.03;;;;;;;;;;5071877;28;20488;-72
2022/09/23 01:30:20;;;;;;;4.40;2.93;;;;;;;;;;5072622;28;20441;-73
2022/09/23 01:33:00;;;;;;;4.53;3.13;;;;;;;;;;5072625;28;20526;-73
2022/09/23 01:35:30;;;;;;;4.40;2.80;;;;;;;;;;5072242;28;20475;-73
2022/09/23 01:38:00;;;;;;;3.50;2.37;;;;;;;;;;5071885;28;20447;-72
2022/09/23 01:40:32;;;;;;;2.70;1.90;;;;;;;;;;5071908;28;20475;-72
2022/09/23 01:43:05;;;;;;;6.10;2.40;;;;;;;;;;5072197;28;20816;-72
2022/09/23 01:45:34;;;;;;;6.23;3.00;;;;;;;;;;5071802;28;20455;-72
2022/09/23 01:48:09;;;;;;;2.90;2.23;;;;;;;;;;5071513;28;20455;-72
2022/09/23 01:50:56;;;;;;;2.43;2.23;;;;;;;;;;5071344;28;20523;-72
2022/09/23 01:53:25;;;;;;;3.40;2.23;;;;;;;;;;5071274;28;20547;-72
2022/09/23 01:55:55;;;;;;;2.50;2.17;;;;;;;;;;5071251;28;20490;-72
2022/09/23 01:58:25;;;;;;;4.43;3.40;;;;;;;;;;5070807;28;20455;-72
2022/09/23 02:00:55;;;;;;;3.23;2.37;;;;;;;;;;5071989;28;20872;-72
2022/09/23 02:03:26;;;;;;;4.53;2.40;;;;;;;;;;5071126;28;20450;-72
2022/09/23 02:05:55;;;;;;;3.30;2.43;;;;;;;;;;5071855;28;20461;-72
2022/09/23 02:08:25;;;;;;;3.80;2.30;;;;;;;;;;5070737;28;20565;-72
2022/09/23 02:10:53;;;;;;;2.53;2.07;;;;;;;;;;5071248;28;20447;-72
2022/09/23 02:13:23;;;;;;;4.77;2.90;;;;;;;;;;5071226;28;20451;-72
2022/09/23 02:15:51;;;;;;;4.47;2.57;;;;;;;;;;5071382;28;20947;-73
2022/09/23 02:18:22;;;;;;;2.97;2.60;;;;;;;;;;5070750;28;20448;-72
2022/09/23 02:20:51;;;;;;;8.37;2.63;;;;;;;;;;5070982;28;20570;-72
2022/09/23 02:23:21;;;;;;;1.97;1.60;;;;;;;;;;5063076;28;20459;-72
2022/09/23 02:25:54;;;;;;;3.57;2.10;;;;;;;;;;5071239;28;20465;-73
2022/09/23 02:28:25;;;;;;;4.43;2.53;;;;;;;;;;5070267;28;21008;-72
2022/09/23 02:30:55;;;;;;;2.43;2.23;;;;;;;;;;5071067;28;20446;-72
2022/09/23 02:33:25;;;;;;;2.00;1.80;;;;;;;;;;5070542;28;20450;-72
2022/09/23 02:35:55;;;;;;;3.00;2.23;;;;;;;;;;5071065;28;20886;-72
2022/09/23 02:38:28;;;;;;;2.53;2.33;;;;;;;;;;5069950;28;20968;-72
2022/09/23 02:40:58;;;;;;;3.60;2.20;;;;;;;;;;5070970;28;20457;-73
2022/09/23 02:43:31;;;;;;;2.50;1.63;;;;;;;;;;5069594;28;20443;-72
2022/09/23 02:45:58;;;;;;;3.00;2.40;;;;;;;;;;5062727;28;20952;-73
2022/09/23 02:48:28;;;;;;;2.90;2.03;;;;;;;;;;5070497;28;20534;-72
2022/09/23 02:50:56;;;;;;;2.00;1.77;;;;;;;;;;5070997;28;20456;-72
2022/09/23 02:53:23;;;;;;;3.03;1.70;;;;;;;;;;5070131;28;20451;-72
2022/09/23 02:55:51;;;;;;;3.33;2.20;;;;;;;;;;5070471;28;20974;-72
2022/09/23 02:58:18;;;;;;;3.30;2.20;;;;;;;;;;5068647;28;20449;-71
2022/09/23 03:00:50;;;;;;;2.10;1.90;;;;;;;;;;5062403;28;20554;-72
2022/09/23 03:03:27;;;;;;;3.80;2.27;;;;;;;;;;5066948;28;20457;-72
2022/09/23 03:05:57;;;;;;;4.33;2.60;;;;;;;;;;5066692;28;20463;-72
2022/09/23 03:08:35;;;;;;;3.03;2.30;;;;;;;;;;5069771;28;20447;-72
2022/09/23 03:11:05;;;;;;;3.17;2.63;;;;;;;;;;5070103;28;20929;-72
2022/09/23 03:13:37;;;;;;;2.50;2.30;;;;;;;;;;5070044;28;20450;-72
2022/09/23 03:16:07;;;;;;;3.40;2.37;;;;;;;;;;5070044;28;20474;-71
2022/09/23 03:18:39;;;;;;;3.40;2.40;;;;;;;;;;5069677;28;20528;-72
2022/09/23 03:21:07;;;;;;;2.17;1.77;;;;;;;;;;5070917;28;20457;-72
2022/09/23 03:23:38;;;;;;;1.97;1.63;;;;;;;;;;5069555;28;20832;-72
2022/09/23 03:26:08;;;;;;;3.40;2.20;;;;;;;;;;5070555;28;20472;-72
2022/09/23 03:28:35;;;;;;;4.70;2.80;;;;;;;;;;5069434;28;20489;-72
2022/09/23 03:31:03;;;;;;;2.90;2.37;;;;;;;;;;5070483;28;20450;-72
2022/09/23 03:33:31;;;;;;;2.80;2.17;;;;;;;;;;5070304;28;20449;-72
2022/09/23 03:39:05;;;;;;;2.27;2.07;;;;;;;;;;5027801;28;20511;-71
2022/09/23 03:41:34;;;;;;;3.47;2.73;;;;;;;;;;5027307;28;20813;-71
2022/09/23 03:44:02;;;;;;;3.40;2.30;;;;;;;;;;5047682;28;20949;-71
2022/09/23 03:46:32;;;;;;;2.93;2.50;;;;;;;;;;5069280;28;20453;-71
2022/09/23 03:49:05;;;;;;;3.00;2.00;;;;;;;;;;5060116;28;20460;-71
2022/09/23 03:51:32;;;;;;;2.53;2.30;;;;;;;;;;5069306;28;20446;-71
2022/09/23 03:53:59;;;;;;;3.23;2.13;;;;;;;;;;5069782;28;20448;-71
2022/09/23 03:56:28;;;;;;;1.93;1.70;;;;;;;;;;5072834;28;20495;-73
2022/09/23 03:58:55;;;;;;;2.70;2.13;;;;;;;;;;5073716;28;20902;-71
2022/09/23 04:01:22;;;;;;;2.50;2.07;;;;;;;;;;5073339;28;20442;-71
2022/09/23 04:03:49;;;;;;;3.77;2.33;;;;;;;;;;5074586;28;20448;-72
2022/09/23 04:06:16;;;;;;;3.40;2.03;;;;;;;;;;5073942;28;20480;-72
2022/09/23 04:08:46;;;;;;;8.23;2.33;;;;;;;;;;5073887;28;20451;-71
2022/09/23 04:11:13;;;;;;;2.23;1.43;;;;;;;;;;5074064;28;20455;-72
2022/09/23 04:13:42;;;;;;;2.67;2.47;;;;;;;;;;5073583;28;20457;-72
2022/09/23 04:16:09;;;;;;;4.03;2.33;;;;;;;;;;5067569;28;20575;-73
2022/09/23 04:18:36;;;;;;;3.83;2.50;;;;;;;;;;5072833;28;20448;-71
2022/09/23 04:21:03;;;;;;;4.73;3.07;;;;;;;;;;5061069;28;20449;-72
2022/09/23 04:23:30;;;;;;;2.67;2.30;;;;;;;;;;5072705;28;20455;-73
2022/09/23 04:25:58;;;;;;;3.67;2.70;;;;;;;;;;5073514;28;20850;-72
2022/09/23 04:28:25;;;;;;;3.10;2.80;;;;;;;;;;5072497;28;20976;-71
2022/09/23 04:30:54;;;;;;;2.30;2.10;;;;;;;;;;5073032;28;20484;-71
2022/09/23 04:33:22;;;;;;;3.10;2.17;;;;;;;;;;5072654;28;20503;-71
2022/09/23 04:35:50;;;;;;;4.37;2.40;;;;;;;;;;5073432;28;20537;-71
2022/09/23 04:38:18;;;;;;;4.00;2.27;;;;;;;;;;5073147;28;20445;-71
2022/09/23 04:40:45;;;;;;;7.83;2.50;;;;;;;;;;5072329;28;20958;-71
2022/09/23 04:43:13;;;;;;;3.40;2.97;;;;;;;;;;5073584;28;20449;-71
2022/09/23 04:45:40;;;;;;;2.30;2.10;;;;;;;;;;5072852;28;20453;-72
2022/09/23 04:48:09;;;;;;;3.57;2.87;;;;;;;;;;5072323;28;20464;-71
2022/09/23 04:50:36;;;;;;;3.20;2.70;;;;;;;;;;5073085;28;20515;-71
2022/09/23 04:53:04;;;;;;;3.40;3.07;;;;;;;;;;5069793;28;20496;-71
2022/09/23 04:55:31;;;;;;;3.23;2.63;;;;;;;;;;5072573;28;20810;-71
2022/09/23 04:57:58;;;;;;;4.90;3.17;;;;;;;;;;5072747;28;20452;-72
2022/09/23 05:00:27;;;;;;;3.63;2.10;;;;;;;;;;5072127;28;20468;-71
2022/09/23 05:02:54;;;;;;;6.97;3.10;;;;;;;;;;5069674;28;20446;-72
2022/09/23 05:05:23;;;;;;;2.63;2.37;;;;;;;;;;5071450;28;20454;-71
2022/09/23 05:07:50;;;;;;;3.73;2.77;;;;;;;;;;5072213;28;20854;-71
2022/09/23 05:10:18;;;;;;;2.53;2.20;;;;;;;;;;5073057;28;20448;-71
2022/09/23 05:12:45;;;;;;;9.30;3.37;;;;;;;;;;5073398;28;20449;-71
2022/09/23 05:15:14;;;;;;;3.17;2.40;;;;;;;;;;5073002;28;20973;-71
2022/09/23 05:17:42;;;;;;;3.37;2.70;;;;;;;;;;5071821;28;20519;-71
2022/09/23 05:20:09;;;;;;;3.47;2.80;;;;;;;;;;5066412;28;20457;-71
2022/09/23 05:22:38;;;;;;;3.17;2.87;;;;;;;;;;5067996;28;20452;-72
2022/09/23 05:25:05;;;;;;;2.93;2.70;;;;;;;;;;5073052;28;20807;-70
2022/09/23 05:27:32;;;;;;;3.73;3.20;;;;;;;;;;5070957;28;20482;-72
2022/09/23 05:29:59;;;;;;;3.60;2.90;;;;;;;;;;5073134;28;20441;-72
2022/09/23 05:32:27;;;;;;;4.30;3.10;;;;;;;;;;5072002;28;20553;-72
2022/09/23 05:34:54;;;;;;;4.50;4.10;;;;;;;;;;5072501;28;20444;-73
2022/09/23 05:37:22;;;;;;;2.83;2.47;;;;;;;;;;5071307;28;20470;-74
2022/09/23 05:39:50;;;;;;;4.63;2.77;;;;;;;;;;5072799;28;20461;-76
2022/09/23 05:42:19;;;;;;;3.13;2.77;;;;;;;;;;5069987;28;20951;-75
2022/09/23 05:44:47;;;;;;;5.00;3.10;;;;;;;;;;5070790;28;20454;-75
2022/09/23 05:47:14;;;;;;;4.87;3.20;;;;;;;;;;5071008;28;20465;-75
2022/09/23 05:49:41;;;;;;;3.07;2.73;;;;;;;;;;5071113;28;20788;-74
2022/09/23 05:52:08;;;;;;;3.93;2.93;;;;;;;;;;5070747;28;20455;-72
2022/09/23 05:54:36;;;;;;;3.77;2.93;;;;;;;;;;5069194;28;20446;-75
2022/09/23 05:57:05;;;;;;;4.07;2.70;;;;;;;;;;5070563;28;20494;-74
2022/09/23 05:59:32;;;;;;;6.07;3.20;;;;;;;;;;5067975;28;20485;-73
2022/09/23 06:02:00;;;;;;;4.17;3.63;;;;;;;;;;5068023;28;20483;-73
2022/09/23 06:04:27;;;;;;;4.07;2.43;;;;;;;;;;5069556;28;20451;-74
2022/09/23 06:06:54;;;;;;;3.63;2.63;;;;;;;;;;5071116;28;20459;-72
2022/09/23 06:09:21;;;;;;;2.73;2.50;;;;;;;;;;5068927;28;20450;-74
2022/09/23 06:11:49;;;;;;;3.53;2.87;;;;;;;;;;5071274;28;20451;-74
2022/09/23 06:14:18;;;;;;;4.57;2.23;;;;;;;;;;5071463;28;20471;-74
2022/09/23 06:16:45;;;;;;;4.47;2.80;;;;;;;;;;5071031;28;20476;-74
2022/09/23 06:19:12;;;;;;;3.67;2.53;;;;;;;;;;5069134;28;20544;-72
2022/09/23 06:21:40;;;;;;;4.13;3.20;;;;;;;;;;5071533;28;20458;-72
2022/09/23 06:24:08;;;;;;;4.50;2.63;;;;;;;;;;5071594;28;20763;-73
2022/09/23 06:26:36;;;;;;;5.27;2.70;;;;;;;;;;5071164;28;20461;-72
2022/09/23 06:29:03;;;;;;;3.13;2.30;;;;;;;;;;5071040;28;20440;-75
2022/09/23 06:31:32;;;;;;;4.17;2.93;;;;;;;;;;5069697;28;20446;-74
2022/09/23 06:33:59;;;;;;;3.37;2.90;;;;;;;;;;5070349;28;20484;-74
2022/09/23 06:36:27;;;;;;;2.83;2.57;;;;;;;;;;5069356;28;20484;-73
2022/09/23 06:38:54;;;;;;;2.80;2.50;;;;;;;;;;5069772;28;20444;-74
2022/09/23 06:41:22;;;;;;;3.47;2.80;;;;;;;;;;5071196;28;20503;-74
2022/09/23 06:43:49;;;;;;;3.37;2.80;;;;;;;;;;5074842;28;20454;-74
2022/09/23 06:46:17;;;;;;;4.40;3.40;;;;;;;;;;5072710;28;20483;-74
2022/09/23 06:48:45;;;;;;;3.10;2.80;;;;;;;;;;5069057;28;20790;-74
2022/09/23 06:51:18;;;;;;;3.80;3.23;;;;;;;;;;5069350;28;20465;-75
2022/09/23 06:53:45;;;;;;;3.87;2.93;;;;;;;;;;5070513;28;20505;-74
2022/09/23 06:56:13;;;;;;;3.70;2.90;;;;;;;;;;5071479;28;20503;-76
2022/09/23 06:58:40;;;;;;;4.60;2.90;;;;;;;;;;5070519;28;20449;-72
2022/09/23 07:01:08;;;;;;;5.27;4.20;;;;;;;;;;5070592;28;20442;-75
2022/09/23 07:03:35;;;;;;;3.20;2.30;;;;;;;;;;5069806;28;20457;-75
2022/09/23 07:06:04;;;;;;;6.53;3.43;;;;;;;;;;5070599;28;20446;-75
2022/09/23 07:08:32;;;;;;;2.60;2.33;;;;;;;;;;5069254;28;20446;-74
2022/09/23 07:11:00;;;;;;;3.43;2.60;;;;;;;;;;5070637;28;20458;-74
2022/09/23 07:13:28;;;;;;;3.47;2.67;;;;;;;;;;5068946;28;20443;-75
2022/09/23 07:15:59;;;;;;;2.20;2.00;;;;;;;;;;5070085;28;20950;-75
2022/09/23 07:18:26;;;;;;;2.90;2.60;;;;;;;;;;5068861;28;20443;-72
2022/09/23 07:20:57;;;;;;;3.80;2.70;;;;;;;;;;5069760;28;20478;-73
2022/09/23 07:23:26;;;;;;;2.43;2.23;;;;;;;;;;5068937;28;20464;-73
2022/09/23 07:25:53;;;;;;;4.50;2.57;;;;;;;;;;5070630;28;20457;-71
2022/09/23 07:28:20;;;;;;;3.27;2.63;;;;;;;;;;5067403;28;20485;-71
2022/09/23 07:30:47;;;;;;;7.37;2.77;;;;;;;;;;5069575;28;20442;-72
2022/09/23 07:33:15;;;;;;;2.40;1.87;;;;;;;;;;5068257;28;20536;-72
2022/09/23 07:35:43;;;;;;;3.63;2.40;;;;;;;;;;5069514;28;20454;-71
2022/09/23 07:38:10;;;;;;;3.00;2.50;;;;;;;;;;5069982;28;20476;-74
2022/09/23 07:40:39;;;;;;;3.33;3.00;;;;;;;;;;5069520;28;20445;-74
2022/09/23 07:43:08;;;;;;;4.17;3.50;;;;;;;;;;5069476;28;20494;-74
2022/09/23 07:45:35;;;;;;;5.33;2.63;;;;;;;;;;5067176;28;20828;-72
2022/09/23 07:48:03;;;;;;;2.60;1.80;;;;;;;;;;5067538;28;20458;-73
2022/09/23 07:50:31;;;;;;;7.03;2.20;;;;;;;;;;5067464;28;20446;-73
2022/09/23 07:52:58;;;;;;;5.27;2.77;;;;;;;;;;5068089;28;20448;-73
2022/09/23 07:55:25;;;;;;;3.53;2.43;;;;;;;;;;5067531;28;20960;-73
2022/09/23 07:57:53;;;;;;;3.20;2.23;;;;;;;;;;5070401;28;20478;-73
2022/09/23 08:00:20;;;;;;;3.20;2.20;;;;;;;;;;5069347;28;20453;-72
2022/09/23 08:02:48;;;;;;;4.50;2.60;;;;;;;;;;5058239;28;20965;-72
2022/09/23 08:05:15;;;;;;;2.30;1.93;;;;;;;;;;5069713;28;20454;-71
2022/09/23 08:07:42;;;;;;;7.13;3.00;;;;;;;;;;5068938;28;20953;-71
2022/09/23 08:10:09;;;;;;;3.40;2.40;;;;;;;;;;5069972;28;20454;-73
2022/09/23 08:12:36;;;;;;;3.90;2.07;;;;;;;;;;5069619;28;20446;-72
2022/09/23 08:15:06;;;;;;;4.00;3.23;;;;;;;;;;5068806;28;20450;-75
2022/09/23 08:17:33;;;;;;;3.90;2.83;;;;;;;;;;5068803;28;20902;-73
2022/09/23 08:20:00;;;;;;;5.53;3.00;;;;;;;;;;5069592;28;20438;-73
2022/09/23 08:22:27;;;;;;;3.57;2.20;;;;;;;;;;5069507;28;20453;-72
2022/09/23 08:24:54;;;;;;;7.23;2.67;;;;;;;;;;5069671;28;20437;-75
2022/09/23 08:27:21;;;;;;;2.53;2.33;;;;;;;;;;5068649;28;20504;-75
2022/09/23 08:29:48;;;;;;;3.23;2.50;;;;;;;;;;5068711;28;20446;-75
2022/09/23 08:32:17;;;;;;;4.23;2.80;;;;;;;;;;5069782;28;20446;-75
2022/09/23 08:34:44;;;;;;;2.80;2.30;;;;;;;;;;5069899;28;20887;-75
2022/09/23 08:37:11;;;;;;;4.83;2.87;;;;;;;;;;5069600;28;20480;-75
2022/09/23 08:39:38;;;;;;;3.50;3.03;;;;;;;;;;5068049;28;20473;-75
2022/09/23 08:42:12;;;;;;;4.10;2.43;;;;;;;;;;5069805;28;21111;-75
2022/09/23 08:44:44;;;;;;;2.83;2.30;;;;;;;;;;5070275;28;20565;-75
2022/09/23 08:47:16;;;;;;;3.30;2.10;;;;;;;;;;5072134;28;20515;-74
2022/09/23 08:49:48;;;;;;;2.73;2.30;;;;;;;;;;5069926;28;20450;-75
2022/09/23 08:52:18;;;;;;;3.57;2.60;;;;;;;;;;5070823;28;20533;-75
2022/09/23 08:54:46;;;;;;;4.10;2.23;;;;;;;;;;5071173;28;20450;-75
2022/09/23 08:57:18;;;;;;;3.67;2.27;;;;;;;;;;5072705;28;20484;-75
2022/09/23 08:59:45;;;;;;;2.80;2.40;;;;;;;;;;5072404;28;20820;-75
2022/09/23 09:02:16;;;;;;;2.33;2.13;;;;;;;;;;5073106;28;20461;-75
2022/09/23 09:04:45;;;;;;;3.73;2.40;;;;;;;;;;5071708;28;20473;-74
2022/09/23 09:07:15;;;;;;;2.03;1.83;;;;;;;;;;5071771;28;20450;-74
2022/09/23 09:09:47;;;;;;;2.67;2.23;;;;;;;;;;5071475;28;20453;-74
2022/09/23 09:12:16;;;;;;;3.13;2.00;;;;;;;;;;5068681;28;20460;-74
2022/09/23 09:14:48;;;;;;;2.60;2.37;;;;;;;;;;5072215;28;20799;-75
2022/09/23 09:17:20;;;;;;;1.93;1.83;;;;;;;;;;5071762;28;20492;-74
2022/09/23 09:19:58;;;;;;;2.80;2.50;;;;;;;;;;5071220;28;20523;-75
2022/09/23 09:22:37;;;;;;;2.13;1.70;;;;;;;;;;5072380;28;20437;-75
2022/09/23 09:25:11;;;;;;;2.53;2.13;;;;;;;;;;5067103;28;20448;-74
2022/09/23 09:27:40;;;;;;;3.80;2.40;;;;;;;;;;5071700;28;20481;-75
2022/09/23 09:30:13;;;;;;;3.73;2.00;;;;;;;;;;5072385;28;20468;-75
2022/09/23 09:32:47;;;;;;;2.30;1.57;;;;;;;;;;5071113;28;20486;-74
2022/09/23 09:35:19;;;;;;;2.10;1.60;;;;;;;;;;5072165;28;20445;-75
2022/09/23 09:37:48;;;;;;;6.40;2.50;;;;;;;;;;5071653;28;21277;-75
2022/09/23 09:40:16;;;;;;;2.47;2.00;;;;;;;;;;5071754;28;20452;-75
2022/09/23 09:42:47;;;;;;;6.60;4.60;;;;;;;;;;5071856;28;20499;-74
2022/09/23 09:45:18;;;;;;;2.53;2.33;;;;;;;;;;5072035;28;20450;-73
2022/09/23 09:47:47;;;;;;;2.57;1.93;;;;;;;;;;5070476;28;20446;-73
2022/09/23 09:50:19;;;;;;;3.27;2.20;;;;;;;;;;5069896;28;20448;-75
2022/09/23 09:52:47;;;;;;;2.70;1.90;;;;;;;;;;5072066;28;20442;-75
2022/09/23 09:55:28;;;;;;;3.70;2.07;;;;;;;;;;5080171;28;20461;-75
2022/09/23 09:58:00;;;;;;;1.67;1.20;;;;;;;;;;5080388;28;21022;-75
2022/09/23 10:00:39;;;;;;;3.33;2.10;;;;;;;;;;5076319;28;20885;-75
2022/09/23 10:03:18;;;;;;;2.60;1.50;;;;;;;;;;5070065;28;21730;-76
2022/09/23 10:05:51;;;;;;;2.70;1.70;;;;;;;;;;5067099;28;20457;-74
2022/09/23 10:08:26;;;;;;;2.10;1.90;;;;;;;;;;5071203;28;20454;-74
2022/09/23 10:11:00;;;;;;;2.60;1.57;;;;;;;;;;5072419;28;20446;-76
2022/09/23 10:13:29;;;;;;;2.50;1.67;;;;;;;;;;5071213;28;20817;-76
2022/09/23 10:15:56;;;;;;;1.70;1.60;;;;;;;;;;5071954;28;20503;-76
2022/09/23 10:18:25;;;;;;;1.90;1.20;;;;;;;;;;5071201;28;21085;-76
2022/09/23 10:20:53;;;;;;;1.77;1.67;;;;;;;;;;5071826;28;20502;-76
2022/09/23 10:23:24;;;;;;;1.73;1.63;;;;;;;;;;5071417;28;20445;-76
2022/09/23 10:25:59;;;;;;;3.20;2.00;;;;;;;;;;5072012;28;20468;-76
2022/09/23 10:28:44;;;;;;;2.33;1.67;;;;;;;;;;5070074;28;20885;-76
2022/09/23 10:31:12;;;;;;;1.90;1.40;;;;;;;;;;5071509;28;20458;-76
2022/09/23 10:33:47;;;;;;;2.00;1.80;;;;;;;;;;5071004;28;20796;-76
2022/09/23 10:36:16;;;;;;;2.53;2.07;;;;;;;;;;5071549;28;20494;-76
2022/09/23 10:38:43;;;;;;;3.10;2.10;;;;;;;;;;5071133;28;20521;-76
2022/09/23 10:46:56;;;;;;;2.13;1.90;;;;;;;;;;5069893;28;20429;-76
2022/09/23 10:49:40;;;;;;;1.90;1.77;;;;;;;;;;5068674;28;20485;-75
2022/09/23 10:52:18;;;;;;;2.57;2.00;;;;;;;;;;5069482;28;20961;-76
2022/09/23 10:54:49;;;;;;;7.33;2.13;;;;;;;;;;5071294;28;20445;-76
2022/09/23 11:00:14;;;;;;;2.53;2.23;;;;;;;;;;5058799;28;20438;-76
2022/09/23 11:02:51;;;;;;;1.87;1.77;;;;;;;;;;5068344;28;20446;-76
2022/09/23 11:05:27;;;;;;;3.57;1.80;;;;;;;;;;5066060;28;20477;-75
2022/09/23 11:08:01;;;;;;;2.60;2.07;;;;;;;;;;5069037;28;20512;-76
2022/09/23 11:10:50;;;;;;;3.30;1.90;;;;;;;;;;5070413;28;20453;-76
2022/09/23 11:13:24;;;;;;;2.93;1.80;;;;;;;;;;5070477;28;20784;-75
2022/09/23 11:15:56;;;;;;;2.77;2.30;;;;;;;;;;5070819;28;20442;-76
2022/09/23 11:18:41;;;;;;;1.97;1.77;;;;;;;;;;5069778;28;20835;-76
2022/09/23 11:21:19;;;;;;;4.20;1.50;;;;;;;;;;5070541;28;20445;-76
2022/09/23 11:23:55;;;;;;;2.40;1.97;;;;;;;;;;5070668;28;20453;-76
2022/09/23 11:26:29;;;;;;;3.07;1.90;;;;;;;;;;5070001;28;20460;-76
2022/09/23 11:29:13;;;;;;;2.27;1.53;;;;;;;;;;5070272;28;20460;-76
2022/09/23 11:31:46;;;;;;;2.40;2.13;;;;;;;;;;5069939;28;20525;-76
2022/09/23 11:34:29;;;;;;;2.60;2.13;;;;;;;;;;5069974;28;20450;-77
2022/09/23 11:36:58;;;;;;;5.53;2.20;;;;;;;;;;5070365;28;20464;-76
2022/09/23 11:39:28;;;;;;;2.90;2.27;;;;;;;;;;5068945;28;20485;-76
2022/09/23 11:41:58;;;;;;;2.00;1.53;;;;;;;;;;5069033;28;20460;-76
2022/09/23 11:44:28;;;;;;;2.80;1.83;;;;;;;;;;5068019;28;20496;-76
2022/09/23 11:46:58;;;;;;;3.07;2.20;;;;;;;;;;5065356;28;20442;-76
2022/09/23 11:49:29;;;;;;;1.83;1.70;;;;;;;;;;5066301;28;20446;-76
2022/09/23 11:52:02;;;;;;;1.97;1.83;;;;;;;;;;5068838;28;20438;-76
2022/09/23 11:54:30;;;;;;;2.80;1.67;;;;;;;;;;5067432;28;20456;-76
2022/09/23 11:57:00;;;;;;;2.90;1.77;;;;;;;;;;5070614;28;20485;-76
2022/09/23 11:59:33;;;;;;;3.20;1.70;;;;;;;;;;5068720;28;20484;-76
2022/09/23 12:02:02;;;;;;;4.87;2.50;;;;;;;;;;5070256;28;20541;-76
2022/09/23 12:04:31;;;;;;;2.43;2.23;;;;;;;;;;5069831;28;20825;-76
2022/09/23 12:07:00;;;;;;;1.70;1.60;;;;;;;;;;5070098;28;20437;-76
2022/09/23 12:09:31;;;;;;;2.30;1.93;;;;;;;;;;5069026;28;20451;-76
2022/09/23 12:12:01;;;;;;;3.33;2.17;;;;;;;;;;5070319;28;20442;-77
2022/09/23 12:14:30;;;;;;;2.47;1.80;;;;;;;;;;5069091;28;20753;-73
2022/09/23 12:17:15;;;;;;;3.43;2.20;;;;;;;;;;5071097;28;20473;-74
2022/09/23 12:19:50;;;;;;;4.40;2.27;;;;;;;;;;5073267;28;20484;-74
2022/09/23 12:22:25;;;;;;;3.57;1.83;;;;;;;;;;5073619;28;20955;-74
2022/09/23 12:24:57;;;;;;;6.90;2.10;;;;;;;;;;5070722;28;20461;-74
2022/09/23 12:27:28;;;;;;;2.40;1.83;;;;;;;;;;5073030;28;20485;-73
2022/09/23 12:29:57;;;;;;;2.90;2.37;;;;;;;;;;5073138;28;20453;-74
2022/09/23 12:32:25;;;;;;;3.00;2.30;;;;;;;;;;5073427;28;20456;-74
2022/09/23 12:34:53;;;;;;;3.03;2.60;;;;;;;;;;5068388;28;20557;-74
2022/09/23 12:37:25;;;;;;;2.33;2.13;;;;;;;;;;5073135;28;20575;-76
2022/09/23 12:39:53;;;;;;;2.40;1.90;;;;;;;;;;5069544;28;20546;-75
2022/09/23 12:42:21;;;;;;;2.40;1.80;;;;;;;;;;5072540;28;20464;-74
2022/09/23 12:44:49;;;;;;;3.97;3.20;;;;;;;;;;5073507;28;20461;-73
2022/09/23 12:47:35;;;;;;;4.60;2.80;;;;;;;;;;5071950;28;20445;-74
2022/09/23 12:50:34;;;;;;;2.73;2.40;;;;;;;;;;5070896;28;20933;-74
2022/09/23 12:53:17;;;;;;;2.37;2.07;;;;;;;;;;5071653;28;20476;-74
2022/09/23 12:55:45;;;;;;;6.00;2.83;;;;;;;;;;5072925;28;20457;-75
2022/09/23 12:58:27;;;;;;;2.53;2.33;;;;;;;;;;5072015;28;20585;-75
2022/09/23 13:01:06;;;;;;;2.47;2.27;;;;;;;;;;5072898;28;20458;-75
2022/09/23 13:09:08;;;;;;;3.10;2.10;;;;;;;;;;5068685;28;20445;-75
2022/09/23 13:11:39;;;;;;;6.40;2.70;;;;;;;;;;5071780;28;20450;-75
2022/09/23 13:14:06;;;;;;;5.03;2.50;;;;;;;;;;5072777;28;20549;-75
2022/09/23 13:16:35;;;;;;;3.53;2.63;;;;;;;;;;5072204;28;20474;-74
2022/09/23 13:19:04;;;;;;;3.37;2.50;;;;;;;;;;5071248;28;20960;-75
2022/09/23 13:21:51;;;;;;;4.43;2.73;;;;;;;;;;5072046;28;20999;-74
2022/09/23 13:24:20;;;;;;;3.10;2.83;;;;;;;;;;5071679;28;20446;-73
2022/09/23 13:26:49;;;;;;;2.57;2.37;;;;;;;;;;5072240;28;20474;-75
2022/09/23 13:29:18;;;;;;;3.50;2.73;;;;;;;;;;5072207;28;20459;-75
2022/09/23 13:31:45;;;;;;;5.90;3.47;;;;;;;;;;5071982;28;20445;-73
2022/09/23 13:34:16;;;;;;;6.00;2.57;;;;;;;;;;5072336;28;20446;-75
2022/09/23 13:36:44;;;;;;;3.07;2.20;;;;;;;;;;5072515;28;20452;-74
2022/09/23 13:39:15;;;;;;;3.03;2.70;;;;;;;;;;5071531;28;20535;-75
2022/09/23 13:41:44;;;;;;;3.17;2.87;;;;;;;;;;5072725;28;20442;-75
2022/09/23 13:44:15;;;;;;;3.30;2.90;;;;;;;;;;5073428;28;20450;-75
2022/09/23 13:46:44;;;;;;;3.43;2.70;;;;;;;;;;5072661;28;20481;-75
2022/09/23 13:49:23;;;;;;;3.30;2.43;;;;;;;;;;5072608;28;20598;-75
2022/09/23 13:51:52;;;;;;;3.33;3.03;;;;;;;;;;5072816;28;20442;-74
2022/09/23 13:54:29;;;;;;;3.33;2.83;;;;;;;;;;5072336;28;20536;-74
2022/09/23 13:56:58;;;;;;;2.60;2.30;;;;;;;;;;5073788;28;20531;-74
2022/09/23 13:59:26;;;;;;;5.80;4.00;;;;;;;;;;5073060;28;20494;-76
2022/09/23 14:02:02;;;;;;;4.30;3.20;;;;;;;;;;5073007;28;20930;-74
2022/09/23 14:04:29;;;;;;;2.50;2.30;;;;;;;;;;5072573;28;20457;-74
2022/09/23 14:06:57;;;;;;;3.70;2.43;;;;;;;;;;5074130;28;20453;-74
2022/09/23 14:09:26;;;;;;;2.90;2.30;;;;;;;;;;5074014;28;20449;-75
2022/09/23 14:11:53;;;;;;;2.63;2.43;;;;;;;;;;5073209;28;20449;-75
2022/09/23 14:14:22;;;;;;;2.03;1.83;;;;;;;;;;5071500;28;20457;-74
2022/09/23 14:16:50;;;;;;;3.67;2.17;;;;;;;;;;5072540;28;20799;-75
2022/09/23 14:19:18;;;;;;;2.93;2.67;;;;;;;;;;5071932;28;20492;-75
2022/09/23 14:21:48;;;;;;;3.50;2.30;;;;;;;;;;5072563;28;20461;-75
2022/09/23 14:24:16;;;;;;;2.93;2.67;;;;;;;;;;5072953;28;20804;-75
2022/09/23 14:26:44;;;;;;;2.97;2.40;;;;;;;;;;5072557;28;21063;-75
2022/09/23 14:29:14;;;;;;;2.70;2.50;;;;;;;;;;5071641;28;20925;-75
2022/09/23 14:31:43;;;;;;;2.23;2.03;;;;;;;;;;5071605;28;20442;-75
2022/09/23 14:34:26;;;;;;;2.80;2.30;;;;;;;;;;5072602;28;20445;-76
2022/09/23 14:39:50;;;;;;;2.80;2.40;;;;;;;;;;5046327;28;20516;-75
2022/09/23 14:42:17;;;;;;;7.40;3.13;;;;;;;;;;5072583;28;20438;-75
2022/09/23 14:44:49;;;;;;;2.47;2.23;;;;;;;;;;5072524;28;20463;-75
2022/09/23 14:47:18;;;;;;;2.37;2.07;;;;;;;;;;5072441;28;20931;-74
2022/09/23 14:50:35;;;;;;;4.27;1.80;;;;;;;;;;5071980;28;20458;-75
2022/09/23 14:52:35;;;;;;;2.80;2.50;;;;;;;;;;5071980;28;20473;-75
2022/09/23 14:55:02;;;;;;;3.00;2.03;;;;;;;;;;5075604;28;20449;-75
2022/09/23 14:57:31;;;;;;;2.20;2.00;;;;;;;;;;5077871;28;20473;-74
2022/09/23 15:00:01;;;;;;;6.60;2.70;;;;;;;;;;5080684;28;20477;-75
2022/09/23 15:02:31;;;;;;;3.43;2.50;;;;;;;;;;5081309;28;20480;-75
2022/09/23 15:05:08;;;;;;;2.30;2.10;;;;;;;;;;5083206;28;20442;-75
2022/09/23 15:07:36;;;;;;;2.37;2.00;;;;;;;;;;5084606;28;20445;-76
2022/09/23 15:10:04;;;;;;;2.90;2.60;;;;;;;;;;5087807;28;20544;-75
2022/09/23 15:12:31;;;;;;;2.60;2.40;;;;;;;;;;5089415;28;20488;-75
2022/09/23 15:14:58;;;;;;;2.10;1.90;;;;;;;;;;5090222;28;20505;-75
2022/09/23 15:17:31;;;;;;;3.13;2.13;;;;;;;;;;5089866;28;20456;-74
2022/09/23 15:20:01;;;;;;;3.47;2.90;;;;;;;;;;5089501;28;20499;-75